createdAt,value
2019-01-16T00:02:24.206Z,84.84
2019-01-16T00:05:11.600Z,84.61
2019-01-16T00:13:23.893Z,85.19
2019-01-16T00:16:11.589Z,85.29
2019-01-16T00:18:59.273Z,85.07
2019-01-16T00:22:06.335Z,85.29
2019-01-16T00:24:53.765Z,85.25
2019-01-16T00:27:41.178Z,85.32
2019-01-16T00:30:49.535Z,85.27
2019-01-16T00:33:36.951Z,85.30
2019-01-16T00:36:46.714Z,85.35
2019-01-16T00:42:44.031Z,85.33
2019-01-16T00:48:24.636Z,85.40
2019-01-16T00:51:11.822Z,85.42
2019-01-16T00:54:18.545Z,85.45
2019-01-16T00:57:05.971Z,85.33
2019-01-16T00:59:53.379Z,85.26
2019-01-16T01:02:40.807Z,85.34
2019-01-16T01:05:49.163Z,85.09
2019-01-16T01:08:36.836Z,85.28
2019-01-16T01:11:24.602Z,85.38
2019-01-16T01:14:12.096Z,85.30
2019-01-16T01:16:59.791Z,85.38
2019-01-16T01:19:47.239Z,85.34
2019-01-16T01:22:34.637Z,85.46
2019-01-16T01:33:25.793Z,85.36
2019-01-16T01:36:13.232Z,85.61
2019-01-16T01:41:49.612Z,85.98
2019-01-16T01:44:37.022Z,86.07
2019-01-16T01:50:00.007Z,86.33
2019-01-16T01:52:47.435Z,86.97
2019-01-16T01:58:44.743Z,87.42
2019-01-16T02:01:51.775Z,87.39
2019-01-16T02:04:39.213Z,87.26
2019-01-16T02:07:26.628Z,87.33
2019-01-16T02:10:14.069Z,87.19
2019-01-16T02:13:01.492Z,87.35
2019-01-16T02:15:48.931Z,87.47
2019-01-16T02:18:36.591Z,87.49
2019-01-16T02:21:44.961Z,87.43
2019-01-16T02:24:32.377Z,87.36
2019-01-16T02:29:58.846Z,87.25
2019-01-16T02:35:46.538Z,87.17
2019-01-16T02:38:33.985Z,87.10
2019-01-16T02:41:10.009Z,87.45
2019-01-16T02:43:51.824Z,87.28
2019-01-16T02:46:21.760Z,87.35
2019-01-16T02:48:56.052Z,87.18
2019-01-16T02:51:31.940Z,87.33
2019-01-16T02:54:01.891Z,87.30
2019-01-16T02:56:32.069Z,87.24
2019-01-16T02:59:04.786Z,87.22
2019-01-16T03:01:40.410Z,87.20
2019-01-16T03:04:25.231Z,87.15
2019-01-16T03:07:00.856Z,86.82
2019-01-16T03:09:39.311Z,87.01
2019-01-16T03:12:18.205Z,86.88
2019-01-16T03:14:48.233Z,86.70
2019-01-16T03:17:20.848Z,86.89
2019-01-16T03:19:53.491Z,86.91
2019-01-16T03:22:25.842Z,86.58
2019-01-16T03:24:55.769Z,86.67
2019-01-16T03:27:34.362Z,86.69
2019-01-16T03:30:04.539Z,86.68
2019-01-16T03:32:34.486Z,86.76
2019-01-16T03:35:04.420Z,86.69
2019-01-16T03:37:34.355Z,86.50
2019-01-16T03:40:04.352Z,86.61
2019-01-16T03:42:34.610Z,86.94
2019-01-16T03:45:04.527Z,86.82
2019-01-16T03:47:39.865Z,86.75
2019-01-16T03:50:13.915Z,86.76
2019-01-16T03:52:49.881Z,86.38
2019-01-16T03:55:22.809Z,86.70
2019-01-16T03:57:58.616Z,86.84
2019-01-16T04:00:37.334Z,86.86
2019-01-16T04:03:23.615Z,86.75
2019-01-16T04:05:53.538Z,86.67
2019-01-16T04:08:26.176Z,86.82
2019-01-16T04:10:56.091Z,86.82
2019-01-16T04:13:35.079Z,86.63
2019-01-16T04:16:07.885Z,86.72
2019-01-16T04:18:53.981Z,86.61
2019-01-16T04:21:26.576Z,86.86
2019-01-16T04:24:14.436Z,86.86
2019-01-16T04:26:44.361Z,87.04
2019-01-16T04:29:29.957Z,87.27
2019-01-16T04:32:05.658Z,87.52
2019-01-16T04:34:44.475Z,87.91
2019-01-16T04:37:23.144Z,87.82
2019-01-16T04:39:53.092Z,88.12
2019-01-16T04:42:23.013Z,88.20
2019-01-16T04:44:55.870Z,88.08
2019-01-16T04:47:28.506Z,88.25
2019-01-16T04:50:10.489Z,88.31
2019-01-16T04:52:49.114Z,88.41
2019-01-16T04:55:19.048Z,88.30
2019-01-16T04:57:51.937Z,88.33
2019-01-16T05:00:21.869Z,88.52
2019-01-16T05:02:54.520Z,88.51
2019-01-16T05:05:30.395Z,88.52
2019-01-16T05:08:15.156Z,88.41
2019-01-16T05:10:47.764Z,88.72
2019-01-16T05:13:33.673Z,88.56
2019-01-16T05:16:06.020Z,88.91
2019-01-16T05:18:44.780Z,89.10
2019-01-16T05:21:23.556Z,89.20
2019-01-16T05:24:02.285Z,89.05
2019-01-16T05:26:32.213Z,88.98
2019-01-16T05:29:18.522Z,89.37
2019-01-16T05:31:50.893Z,89.47
2019-01-16T05:34:38.712Z,89.61
2019-01-16T05:37:17.157Z,89.45
2019-01-16T05:39:47.117Z,89.48
2019-01-16T05:42:17.052Z,89.61
2019-01-16T05:44:49.717Z,88.62
2019-01-16T05:47:19.658Z,89.22
2019-01-16T05:50:07.685Z,89.00
2019-01-16T05:52:37.608Z,89.08
2019-01-16T05:55:11.607Z,89.07
2019-01-16T05:57:47.370Z,88.82
2019-01-16T06:00:22.869Z,88.57
2019-01-16T06:03:07.466Z,88.40
2019-01-16T06:05:40.384Z,87.57
2019-01-16T06:08:12.808Z,87.75
2019-01-16T06:11:00.930Z,87.67
2019-01-16T06:13:30.870Z,87.50
2019-01-16T06:16:16.751Z,87.19
2019-01-16T06:18:46.675Z,87.08
2019-01-16T06:21:34.957Z,86.26
2019-01-16T06:24:07.542Z,86.22
2019-01-16T06:26:43.235Z,85.80
2019-01-16T06:29:31.017Z,85.55
2019-01-16T06:32:18.837Z,85.51
2019-01-16T06:34:54.717Z,85.33
2019-01-16T06:37:27.306Z,84.77
2019-01-16T06:39:57.244Z,84.61
2019-01-16T06:42:30.230Z,84.39
2019-01-16T06:45:05.859Z,84.48
2019-01-16T06:47:41.444Z,84.31
2019-01-16T06:50:23.663Z,84.17
2019-01-16T06:52:59.875Z,83.98
2019-01-16T06:55:35.639Z,83.45
2019-01-16T06:58:17.750Z,83.45
2019-01-16T07:00:47.704Z,83.33
2019-01-16T07:03:17.637Z,82.92
2019-01-16T07:05:50.539Z,82.79
2019-01-16T07:08:22.922Z,82.53
2019-01-16T07:10:52.843Z,81.92
2019-01-16T07:13:38.722Z,82.01
2019-01-16T07:16:08.639Z,81.86
2019-01-16T07:18:41.500Z,81.69
2019-01-16T07:21:27.425Z,81.54
2019-01-16T07:24:13.295Z,81.42
2019-01-16T07:26:55.086Z,81.38
2019-01-16T07:29:40.691Z,81.20
2019-01-16T07:32:25.568Z,80.92
2019-01-16T07:35:11.912Z,81.10
2019-01-16T07:37:50.598Z,80.94
2019-01-16T07:40:23.378Z,80.84
2019-01-16T07:43:05.119Z,80.82
2019-01-16T07:45:35.083Z,80.70
2019-01-16T07:48:21.329Z,80.62
2019-01-16T07:50:51.275Z,80.46
2019-01-16T07:53:21.196Z,80.00
2019-01-16T07:56:07.396Z,79.94
2019-01-16T07:58:39.760Z,80.16
2019-01-16T08:01:09.683Z,80.11
2019-01-16T08:03:55.554Z,79.79
2019-01-16T08:06:31.203Z,79.84
2019-01-16T08:09:19.259Z,79.77
2019-01-16T08:12:00.969Z,79.28
2019-01-16T08:14:47.110Z,79.46
2019-01-16T08:17:19.754Z,79.24
2019-01-16T08:19:58.464Z,79.19
2019-01-16T08:22:40.428Z,79.14
2019-01-16T08:25:25.377Z,78.92
2019-01-16T08:28:11.392Z,78.62
2019-01-16T08:30:41.585Z,78.64
2019-01-16T08:33:16.927Z,78.26
2019-01-16T08:35:49.484Z,78.17
2019-01-16T08:38:28.541Z,78.12
2019-01-16T08:41:10.442Z,77.90
2019-01-16T08:43:55.155Z,77.77
2019-01-16T08:46:40.141Z,77.49
2019-01-16T08:49:22.071Z,77.40
2019-01-16T08:51:57.794Z,77.19
2019-01-16T08:54:27.724Z,76.98
2019-01-16T08:57:13.330Z,76.87
2019-01-16T08:59:49.104Z,76.84
2019-01-16T09:02:33.904Z,76.04
2019-01-16T09:05:19.817Z,76.33
2019-01-16T09:07:49.763Z,76.56
2019-01-16T09:10:22.580Z,75.88
2019-01-16T09:12:52.511Z,76.10
2019-01-16T09:15:37.285Z,76.26
2019-01-16T09:18:07.462Z,75.74
2019-01-16T09:20:40.156Z,75.71
2019-01-16T09:23:18.181Z,75.66
2019-01-16T09:26:05.959Z,75.23
2019-01-16T09:28:39.186Z,75.08
2019-01-16T09:31:17.962Z,75.54
2019-01-16T09:33:47.879Z,75.57
2019-01-16T09:36:26.560Z,75.55
2019-01-16T09:39:11.360Z,74.92
2019-01-16T09:41:41.552Z,74.90
2019-01-16T09:44:14.145Z,74.98
2019-01-16T09:46:50.320Z,75.21
2019-01-16T09:49:26.146Z,74.98
2019-01-16T09:52:25.506Z,74.79
2019-01-16T09:55:04.522Z,74.52
2019-01-16T09:57:50.457Z,74.26
2019-01-16T10:00:36.712Z,74.62
2019-01-16T10:03:09.068Z,74.39
2019-01-16T10:05:56.937Z,74.17
2019-01-16T10:08:29.900Z,73.18
2019-01-16T10:11:05.666Z,73.39
2019-01-16T10:13:38.083Z,72.86
2019-01-16T10:16:26.187Z,73.20
2019-01-16T10:19:11.891Z,72.72
2019-01-16T10:21:56.656Z,73.15
2019-01-16T10:24:26.631Z,72.82
2019-01-16T10:27:12.416Z,73.26
2019-01-16T10:29:45.120Z,73.51
2019-01-16T10:32:17.820Z,73.47
2019-01-16T10:35:05.401Z,73.54
2019-01-16T10:37:41.007Z,73.08
2019-01-16T10:40:29.018Z,72.53
2019-01-16T10:43:01.671Z,72.58
2019-01-16T10:45:31.625Z,72.37
2019-01-16T10:48:04.615Z,72.40
2019-01-16T10:50:52.489Z,72.46
2019-01-16T10:53:40.566Z,72.13
2019-01-16T10:56:26.453Z,72.18
2019-01-16T10:59:04.989Z,71.07
2019-01-16T11:01:37.965Z,71.65
2019-01-16T11:04:25.948Z,71.03
2019-01-16T11:07:01.566Z,71.61
2019-01-16T11:09:46.316Z,71.76
2019-01-16T11:12:16.258Z,71.49
2019-01-16T11:15:02.411Z,71.41
2019-01-16T11:17:48.528Z,71.22
2019-01-16T11:20:21.221Z,71.14
2019-01-16T11:22:57.068Z,70.43
2019-01-16T11:25:32.912Z,70.99
2019-01-16T11:28:11.387Z,71.09
2019-01-16T11:30:58.889Z,71.10
2019-01-16T11:33:44.777Z,70.67
2019-01-16T11:36:29.255Z,71.00
2019-01-16T11:39:11.237Z,71.03
2019-01-16T11:41:43.932Z,70.85
2019-01-16T11:44:25.445Z,70.75
2019-01-16T11:46:55.391Z,70.86
2019-01-16T11:49:28.240Z,70.88
2019-01-16T11:52:03.868Z,71.00
2019-01-16T11:54:45.592Z,71.00
2019-01-16T11:57:18.433Z,70.96
2019-01-16T12:00:00.471Z,70.59
2019-01-16T12:02:47.049Z,70.73
2019-01-16T12:05:25.621Z,70.50
2019-01-16T12:08:07.440Z,70.79
2019-01-16T12:10:53.668Z,70.88
2019-01-16T12:13:39.213Z,70.76
2019-01-16T12:16:09.166Z,70.31
2019-01-16T12:18:50.992Z,70.82
2019-01-16T12:21:29.590Z,70.77
2019-01-16T12:24:07.953Z,70.75
2019-01-16T12:26:43.568Z,71.17
2019-01-16T12:29:18.952Z,71.12
2019-01-16T12:31:51.636Z,70.71
2019-01-16T12:34:27.289Z,69.84
2019-01-16T12:36:59.980Z,70.19
2019-01-16T12:39:30.164Z,69.98
2019-01-16T12:42:06.081Z,69.52
2019-01-16T12:44:39.221Z,69.71
2019-01-16T12:47:20.920Z,69.76
2019-01-16T12:49:56.376Z,69.42
2019-01-16T12:52:29.225Z,68.20
2019-01-16T12:55:02.121Z,68.74
2019-01-16T12:57:37.745Z,67.74
2019-01-16T13:00:31.989Z,68.46
2019-01-16T13:03:04.365Z,68.73
2019-01-16T13:05:34.302Z,68.53
2019-01-16T13:08:06.950Z,68.99
2019-01-16T13:10:42.532Z,69.07
2019-01-16T13:13:24.009Z,69.53
2019-01-16T13:16:06.293Z,69.08
2019-01-16T13:18:36.248Z,69.11
2019-01-16T13:21:23.007Z,69.20
2019-01-16T13:24:10.856Z,69.14
2019-01-16T13:26:56.469Z,69.25
2019-01-16T13:29:26.425Z,68.83
2019-01-16T13:32:11.387Z,69.50
2019-01-16T13:34:41.342Z,69.82
2019-01-16T13:37:20.034Z,69.90
2019-01-16T13:39:56.305Z,69.97
2019-01-16T13:42:26.501Z,70.12
2019-01-16T13:45:12.620Z,69.77
2019-01-16T13:47:42.781Z,69.73
2019-01-16T13:50:26.620Z,69.79
2019-01-16T13:53:12.559Z,69.30
2019-01-16T13:55:51.275Z,69.34
2019-01-16T13:58:21.744Z,69.80
2019-01-16T14:00:54.341Z,69.98
2019-01-16T14:03:27.203Z,69.74
2019-01-16T14:05:57.144Z,70.05
2019-01-16T14:08:27.076Z,69.82
2019-01-16T14:11:09.258Z,69.90
2019-01-16T14:13:41.843Z,69.55
2019-01-16T14:16:12.021Z,69.65
2019-01-16T14:18:57.993Z,69.88
2019-01-16T14:21:30.607Z,69.96
2019-01-16T14:24:02.986Z,69.96
2019-01-16T14:26:32.927Z,70.09
2019-01-16T14:29:11.547Z,69.86
2019-01-16T14:31:37.723Z,69.91
2019-01-16T14:34:24.188Z,69.89
2019-01-16T14:36:56.537Z,69.89
2019-01-16T14:39:44.067Z,70.14
2019-01-16T14:42:19.794Z,70.36
2019-01-16T14:45:07.865Z,69.58
2019-01-16T14:47:40.682Z,70.07
2019-01-16T14:50:26.706Z,70.34
2019-01-16T14:52:59.358Z,70.28
2019-01-16T14:55:37.967Z,70.50
2019-01-16T14:58:08.887Z,70.42
2019-01-16T15:00:54.718Z,70.43
2019-01-16T15:03:33.132Z,70.57
2019-01-16T15:06:19.249Z,70.89
2019-01-16T15:09:01.250Z,70.70
2019-01-16T15:11:39.749Z,71.00
2019-01-16T15:14:22.885Z,71.02
2019-01-16T15:16:58.571Z,71.08
2019-01-16T15:19:44.272Z,71.54
2019-01-16T15:22:30.834Z,71.73
2019-01-16T15:25:15.704Z,71.73
2019-01-16T15:27:45.902Z,71.64
2019-01-16T15:30:17.072Z,71.61
2019-01-16T15:32:55.688Z,71.83
2019-01-16T15:35:28.332Z,72.09
2019-01-16T15:37:58.267Z,72.24
2019-01-16T15:40:30.742Z,72.20
2019-01-16T15:43:15.557Z,72.31
2019-01-16T15:45:45.491Z,72.38
2019-01-16T15:48:18.192Z,72.36
2019-01-16T15:50:54.047Z,72.55
2019-01-16T15:53:32.543Z,72.63
2019-01-16T15:56:05.411Z,72.70
2019-01-16T15:58:38.256Z,72.75
2019-01-16T16:01:24.058Z,72.59
2019-01-16T16:03:59.546Z,72.75
2019-01-16T16:06:29.706Z,72.90
2019-01-16T16:09:15.539Z,72.71
2019-01-16T16:11:45.710Z,72.76
2019-01-16T16:14:24.469Z,72.97
2019-01-16T16:16:54.703Z,73.10
2019-01-16T16:19:30.393Z,73.12
2019-01-16T16:22:03.247Z,73.16
2019-01-16T16:24:38.643Z,73.26
2019-01-16T16:27:24.761Z,73.34
2019-01-16T16:30:06.543Z,73.28
2019-01-16T16:32:48.499Z,73.21
2019-01-16T16:35:30.321Z,73.22
2019-01-16T16:38:02.995Z,73.28
2019-01-16T16:40:45.060Z,73.26
2019-01-16T16:55:30.882Z,73.47
2019-01-16T16:58:18.317Z,73.52
2019-01-16T17:03:58.878Z,73.53
2019-01-16T17:06:46.291Z,73.43
2019-01-16T17:09:53.105Z,73.42
2019-01-16T17:12:40.524Z,73.44
2019-01-16T17:15:48.907Z,73.51
2019-01-16T17:18:39.677Z,73.55
2019-01-16T17:24:38.039Z,73.43
2019-01-16T17:32:43.781Z,73.36
2019-01-16T17:35:50.566Z,73.40
2019-01-16T17:38:37.998Z,73.30
2019-01-16T17:41:25.401Z,73.26
2019-01-16T17:44:12.835Z,73.13
2019-01-16T17:50:05.182Z,72.90
2019-01-16T17:55:41.558Z,72.81
2019-01-16T17:58:48.304Z,72.66
2019-01-16T18:01:35.978Z,72.58
2019-01-16T18:10:49.566Z,72.56
2019-01-16T18:13:36.987Z,72.67
2019-01-16T18:16:45.324Z,72.56
2019-01-16T18:19:32.742Z,72.46
2019-01-16T18:22:20.161Z,72.40
2019-01-16T18:28:20.389Z,72.60
2019-01-16T18:34:16.399Z,72.81
2019-01-16T18:42:28.362Z,72.81
2019-01-16T18:45:35.166Z,72.79
2019-01-16T18:48:22.588Z,72.73
2019-01-16T18:51:10.012Z,72.54
2019-01-16T18:53:57.435Z,72.66
2019-01-16T18:56:45.123Z,72.75
2019-01-16T18:59:32.525Z,72.77
2019-01-16T19:02:19.959Z,72.77
2019-01-16T19:05:27.353Z,72.69
2019-01-16T19:08:14.775Z,72.60
2019-01-16T19:11:21.567Z,72.62
2019-01-16T19:14:09.247Z,72.71
2019-01-16T19:16:56.665Z,72.65
2019-01-16T19:19:44.102Z,72.64
2019-01-16T19:27:59.535Z,72.03
2019-01-16T19:33:26.264Z,72.31
2019-01-16T19:36:13.687Z,72.23
2019-01-16T19:39:01.090Z,71.95
2019-01-16T19:45:03.307Z,72.09
2019-01-16T19:47:50.732Z,72.18
2019-01-16T19:50:38.409Z,72.12
2019-01-16T19:53:25.835Z,71.48
2019-01-16T19:56:13.239Z,71.69
2019-01-16T19:59:00.743Z,71.63
2019-01-16T20:04:56.492Z,71.56
2019-01-16T20:08:05.058Z,70.92
2019-01-16T20:11:11.872Z,71.07
2019-01-16T20:16:48.268Z,70.60
2019-01-16T20:19:55.047Z,70.75
2019-01-16T20:22:42.474Z,71.13
2019-01-16T20:25:29.879Z,71.06
2019-01-16T20:28:17.302Z,70.99
2019-01-16T20:31:04.709Z,70.92
2019-01-16T20:33:52.143Z,70.98
2019-01-16T20:36:39.812Z,70.41
2019-01-16T20:39:48.161Z,70.94
2019-01-16T20:42:35.833Z,70.91
2019-01-16T20:45:44.189Z,70.95
2019-01-16T20:48:31.878Z,70.62
2019-01-16T20:53:54.578Z,70.91
2019-01-16T21:01:56.495Z,70.81
2019-01-16T21:04:43.946Z,70.29
2019-01-16T21:07:31.398Z,70.73
2019-01-16T21:13:27.230Z,70.75
2019-01-16T21:16:14.631Z,70.99
2019-01-16T21:21:41.133Z,71.15
2019-01-16T21:29:58.787Z,71.39
2019-01-16T21:33:10.485Z,71.57
2019-01-16T21:38:30.178Z,71.96
2019-01-16T21:41:17.867Z,71.70
2019-01-16T21:44:05.288Z,72.06
2019-01-16T21:47:14.502Z,71.61
2019-01-16T21:50:02.185Z,72.37
2019-01-16T21:56:21.536Z,72.96
2019-01-16T21:59:08.972Z,72.85
2019-01-16T22:08:01.442Z,73.66
2019-01-16T22:11:08.237Z,73.78
2019-01-16T22:13:55.658Z,73.96
2019-01-16T22:30:14.197Z,74.41
2019-01-16T22:35:50.825Z,74.78
2019-01-16T22:44:22.918Z,74.84
2019-01-16T22:55:50.930Z,74.80
2019-01-16T22:58:38.368Z,74.86
2019-01-16T23:01:46.936Z,74.90
2019-01-16T23:04:34.626Z,75.05
2019-01-16T23:07:22.028Z,74.85
2019-01-16T23:10:09.697Z,75.08
2019-01-16T23:12:57.355Z,75.39
2019-01-16T23:15:44.800Z,75.61
2019-01-16T23:21:40.889Z,76.01
2019-01-16T23:24:28.308Z,76.13
2019-01-16T23:27:15.740Z,76.62
2019-01-16T23:39:01.618Z,78.88
2019-01-16T23:41:49.027Z,78.98
2019-01-16T23:47:46.897Z,80.36
2019-01-16T23:50:34.309Z,80.74
2019-01-16T23:53:21.743Z,80.82
2019-01-16T23:56:09.162Z,81.11
